Time;durP1;ratioP1;P1;durP2;ratioP2;P2;SDS_P1;SDS_P2;PMS_P1;PMS_P2;Temp;Humidity;BMP_temperature;BMP_pressure;BME280_temperature;BME280_humidity;BME280_pressure;Samples;Min_cycle;Max_cycle;Signal;HPM_P1;HPM_P2
2022/06/23 00:02:24;;;;;;;4.43;3.00;;;;;;;24.53;52.96;99174.53;5027525;28;20110;-83
2022/06/23 00:04:54;;;;;;;4.82;3.40;;;;;;;24.61;53.19;99191.84;5027924;28;20044;-82
2022/06/23 00:07:24;;;;;;;9.13;4.43;;;;;;;24.57;53.25;99197.56;5027305;28;20119;-81
2022/06/23 00:09:56;;;;;;;7.28;2.88;;;;;;;24.37;53.60;99180.31;5027478;28;20065;-82
2022/06/23 00:12:36;;;;;;;4.95;2.67;;;;;;;24.52;53.22;99207.88;5027427;28;20407;-81
2022/06/23 00:15:01;;;;;;;6.03;3.97;;;;;;;24.50;53.48;99213.41;5027996;28;20057;-82
2022/06/23 00:17:36;;;;;;;5.80;3.15;;;;;;;24.43;53.19;99202.22;5027261;28;20539;-81
2022/06/23 00:20:09;;;;;;;3.95;2.13;;;;;;;24.37;53.08;99197.34;5027427;28;20042;-82
2022/06/23 00:22:39;;;;;;;3.22;2.22;;;;;;;24.40;52.92;99183.59;5027078;28;20025;-81
2022/06/23 00:25:06;;;;;;;6.85;2.60;;;;;;;24.45;52.60;99173.34;5044887;28;20060;-81
2022/06/23 00:27:38;;;;;;;5.05;3.35;;;;;;;24.63;52.32;99183.63;5046456;28;20102;-81
2022/06/23 00:30:25;;;;;;;5.15;3.08;;;;;;;24.52;52.46;99167.44;5045675;28;20029;-82
2022/06/23 00:32:51;;;;;;;4.68;3.00;;;;;;;24.58;52.13;99165.13;5046931;28;20032;-81
2022/06/23 00:35:18;;;;;;;4.28;2.17;;;;;;;24.76;51.68;99162.78;5045993;28;20051;-81
2022/06/23 00:37:50;;;;;;;5.43;2.35;;;;;;;24.81;51.82;99173.19;5045706;28;20434;-82
2022/06/23 00:40:20;;;;;;;3.97;2.50;;;;;;;24.95;51.67;99172.88;5045806;28;20094;-82
2022/06/23 00:42:56;;;;;;;3.47;2.25;;;;;;;24.81;52.06;99182.13;5046825;28;20037;-82
2022/06/23 00:45:33;;;;;;;8.40;2.90;;;;;;;24.89;51.90;99167.16;5046401;28;20120;-82
2022/06/23 00:48:11;;;;;;;2.83;1.73;;;;;;;24.88;51.83;99166.28;5046350;28;20036;-82
2022/06/23 00:50:45;;;;;;;6.30;2.45;;;;;;;24.86;51.70;99149.38;5046036;28;20110;-82
2022/06/23 00:53:11;;;;;;;5.88;2.80;;;;;;;25.11;52.16;99177.84;5045548;28;20415;-82
2022/06/23 00:55:46;;;;;;;5.43;2.80;;;;;;;25.02;52.97;99175.91;5046323;28;20025;-81
2022/06/23 00:58:18;;;;;;;3.05;2.38;;;;;;;24.88;53.21;99173.50;5045738;28;20450;-81
2022/06/23 01:00:44;;;;;;;4.28;2.70;;;;;;;24.86;53.85;99162.84;5046986;28;20510;-82
2022/06/23 01:03:27;;;;;;;5.05;2.90;;;;;;;24.73;54.17;99168.41;5046931;28;20025;-81
2022/06/23 01:06:12;;;;;;;4.28;2.40;;;;;;;24.65;54.71;99160.97;5046702;28;20068;-82
2022/06/23 01:08:44;;;;;;;3.97;2.17;;;;;;;24.56;53.98;99147.31;5045756;28;20037;-81
2022/06/23 01:11:29;;;;;;;2.33;2.08;;;;;;;24.62;54.12;99181.91;5046727;28;20037;-81
2022/06/23 01:14:15;;;;;;;3.60;2.78;;;;;;;24.67;53.74;99187.78;5044611;28;20037;-81
2022/06/23 01:16:56;;;;;;;5.68;2.97;;;;;;;24.37;54.02;99153.38;5045773;28;20041;-81
2022/06/23 01:19:57;;;;;;;3.47;2.00;;;;;;;24.67;53.29;99187.78;5046539;28;20414;-82
2022/06/23 01:22:31;;;;;;;4.50;2.28;;;;;;;24.64;53.17;99188.03;4983920;28;20133;-82
2022/06/23 01:25:02;;;;;;;4.78;2.50;;;;;;;24.35;54.02;99185.81;5036961;28;20049;-81
2022/06/23 01:27:34;;;;;;;9.02;3.78;;;;;;;24.35;53.51;99188.53;5046467;28;20066;-80
2022/06/23 01:30:05;;;;;;;4.57;3.10;;;;;;;24.39;53.55;99190.00;5046175;28;20866;-81
2022/06/23 01:32:53;;;;;;;3.78;2.75;;;;;;;24.48;53.53;99191.94;5045004;28;20025;-81
2022/06/23 01:35:29;;;;;;;3.95;2.72;;;;;;;24.18;53.83;99154.84;5045003;28;20132;-82
2022/06/23 01:38:00;;;;;;;3.67;2.63;;;;;;;24.30;53.51;99171.88;5046058;28;20033;-81
2022/06/23 01:40:28;;;;;;;8.35;2.95;;;;;;;24.21;53.68;99151.06;5046332;28;20040;-81
2022/06/23 01:43:24;;;;;;;3.70;2.95;;;;;;;24.47;53.93;99165.97;5046147;28;20120;-81
2022/06/23 01:46:02;;;;;;;4.22;2.83;;;;;;;24.18;54.20;99143.22;5026302;28;20037;-81
2022/06/23 01:48:52;;;;;;;3.60;2.63;;;;;;;24.03;54.31;99159.59;5030183;28;20864;-81
2022/06/23 01:51:24;;;;;;;4.63;2.75;;;;;;;23.83;54.48;99163.84;5046357;28;20044;-81
2022/06/23 01:53:52;;;;;;;5.53;2.30;;;;;;;23.94;54.73;99177.38;5046070;28;20045;-80
2022/06/23 01:56:36;;;;;;;5.20;2.88;;;;;;;23.93;54.73;99164.03;5046107;28;20091;-80
2022/06/23 01:59:24;;;;;;;4.75;3.00;;;;;;;24.04;54.16;99155.09;5046359;28;20024;-81
2022/06/23 02:02:05;;;;;;;5.43;2.85;;;;;;;23.67;55.56;99152.59;5046292;28;20036;-81
2022/06/23 02:04:58;;;;;;;4.80;3.08;;;;;;;23.80;54.32;99153.31;5046282;28;20037;-81
2022/06/23 02:07:39;;;;;;;6.22;2.28;;;;;;;24.03;54.28;99180.31;5043783;28;20037;-81
2022/06/23 02:10:07;;;;;;;4.30;2.40;;;;;;;24.08;54.18;99191.56;5049928;28;20123;-81
2022/06/23 02:12:51;;;;;;;3.30;1.60;;;;;;;23.99;54.25;99170.75;5048503;28;20078;-82
2022/06/23 02:15:49;;;;;;;7.10;3.55;;;;;;;23.98;54.34;99152.91;5049051;28;20033;-81
2022/06/23 02:18:42;;;;;;;4.82;1.98;;;;;;;24.07;54.51;99158.41;5049307;28;20114;-81
2022/06/23 02:21:43;;;;;;;4.53;2.20;;;;;;;24.26;54.91;99187.41;5048520;28;20025;-81
2022/06/23 02:24:19;;;;;;;5.80;2.97;;;;;;;24.10;55.80;99189.63;5049133;28;20512;-81
2022/06/23 02:26:57;;;;;;;3.45;2.17;;;;;;;23.88;55.07;99194.00;5029895;28;20037;-81
2022/06/23 02:29:31;;;;;;;3.13;2.78;;;;;;;23.77;55.71;99186.75;5028046;28;20026;-81
2022/06/23 02:32:38;;;;;;;3.63;2.45;;;;;;;23.77;56.49;99189.44;5029645;28;20095;-81
2022/06/23 02:35:31;;;;;;;5.70;2.22;;;;;;;23.83;55.83;99181.84;5015743;28;20048;-81
2022/06/23 02:38:03;;;;;;;3.88;2.67;;;;;;;23.60;56.29;99154.88;5040309;28;20152;-81
2022/06/23 02:41:11;;;;;;;4.30;3.45;;;;;;;23.83;55.96;99181.84;5029745;28;20032;-82
2022/06/23 02:43:44;;;;;;;2.95;2.17;;;;;;;23.64;57.76;99177.91;4995759;28;20078;-82
2022/06/23 02:46:22;;;;;;;4.43;2.53;;;;;;;23.71;57.67;99176.44;4986176;28;20050;-86
2022/06/23 02:49:05;;;;;;;3.80;2.40;;;;;;;23.39;58.48;99179.78;5025816;28;20053;-84
2022/06/23 02:51:59;;;;;;;3.85;2.60;;;;;;;23.00;59.64;99179.13;5028921;28;20048;-84
2022/06/23 02:55:09;;;;;;;5.93;2.95;;;;;;;22.66;60.92;99178.91;5029156;28;20093;-83
2022/06/23 02:58:07;;;;;;;9.23;3.33;;;;;;;22.42;62.31;99175.34;5041157;28;20041;-86
2022/06/23 03:00:46;;;;;;;4.43;2.60;;;;;;;22.22;62.77;99134.59;5018140;28;20045;-86
2022/06/23 03:03:20;;;;;;;5.90;3.78;;;;;;;22.28;63.38;99181.66;5048777;28;20060;-87
2022/06/23 03:06:04;;;;;;;6.13;3.67;;;;;;;22.33;63.27;99175.00;5048705;28;20035;-92
2022/06/23 03:08:42;;;;;;;5.63;2.88;;;;;;;22.45;63.04;99178.66;5047156;28;20198;-89
2022/06/23 03:14:20;;;;;;;5.32;2.88;;;;;;;22.24;63.04;99153.28;5048175;28;20098;-89
2022/06/23 03:16:51;;;;;;;5.53;3.35;;;;;;;21.91;63.28;99120.69;5047098;28;20122;-91
2022/06/23 03:19:57;;;;;;;7.72;3.97;;;;;;;22.20;63.36;99152.66;5047056;28;20040;-96
2022/06/23 03:22:38;;;;;;;7.93;3.92;;;;;;;22.51;63.16;99177.34;5049361;28;20414;-91
2022/06/23 03:25:04;;;;;;;5.25;3.05;;;;;;;22.19;63.73;99188.53;5050720;28;20079;-91
2022/06/23 03:27:55;;;;;;;5.00;3.33;;;;;;;22.12;63.54;99145.16;5050202;28;20487;-92
2022/06/23 03:30:50;;;;;;;7.78;3.70;;;;;;;22.24;63.31;99181.00;5026925;28;20066;-89
2022/06/23 03:33:32;;;;;;;4.22;2.47;;;;;;;22.53;62.89;99191.53;5048139;28;20425;-89
2022/06/23 03:36:04;;;;;;;5.63;3.35;;;;;;;22.61;62.59;99175.69;5046380;28;20045;-88
2022/06/23 03:41:44;;;;;;;7.53;2.72;;;;;;;22.78;61.08;99152.94;5050206;28;20055;-90
2022/06/23 03:44:30;;;;;;;6.13;3.78;;;;;;;22.86;62.36;99182.81;5041966;28;20063;-85
2022/06/23 03:46:58;;;;;;;5.28;3.10;;;;;;;22.99;62.83;99198.91;5028016;28;20036;-86
2022/06/23 03:49:47;;;;;;;8.65;3.08;;;;;;;23.04;60.67;99180.56;5028593;28;20033;-84
2022/06/23 03:52:41;;;;;;;6.65;3.00;;;;;;;23.22;61.04;99209.81;5028004;28;20029;-86
2022/06/23 03:55:22;;;;;;;9.65;3.67;;;;;;;23.26;60.75;99207.75;5021646;28;20063;-85
2022/06/23 03:58:01;;;;;;;7.20;3.83;;;;;;;23.32;60.55;99224.25;5027248;28;20029;-85
2022/06/23 04:01:25;;;;;;;5.25;2.70;;;;;;;23.37;60.92;99219.41;5027840;28;20029;-84
2022/06/23 04:04:16;;;;;;;4.03;2.47;;;;;;;23.30;61.42;99206.53;4990222;28;20050;-85
2022/06/23 04:06:48;;;;;;;7.40;2.97;;;;;;;23.49;61.43;99211.38;5047590;28;20047;-84
2022/06/23 04:09:16;;;;;;;4.72;2.65;;;;;;;23.61;61.73;99223.91;5047597;28;20029;-85
2022/06/23 04:11:47;;;;;;;4.18;2.22;;;;;;;23.61;62.31;99229.28;5047314;28;20041;-85
2022/06/23 04:14:38;;;;;;;6.30;4.00;;;;;;;23.61;61.83;99215.81;5047481;28;20039;-87
2022/06/23 04:17:23;;;;;;;4.95;3.80;;;;;;;23.70;61.64;99220.50;5027263;28;20041;-84
2022/06/23 04:19:52;;;;;;;6.22;2.47;;;;;;;23.68;61.38;99202.72;5026941;28;20412;-84
2022/06/23 04:22:32;;;;;;;4.82;2.40;;;;;;;23.87;61.28;99218.38;5027299;28;20041;-84
2022/06/23 04:25:00;;;;;;;10.90;3.28;;;;;;;23.82;61.87;99198.97;5027680;28;20048;-84
2022/06/23 04:27:31;;;;;;;5.28;2.85;;;;;;;23.97;61.68;99203.19;5027400;28;20040;-85
2022/06/23 04:29:59;;;;;;;7.32;3.55;;;;;;;23.80;61.99;99185.63;5029362;28;20028;-86
2022/06/23 04:32:29;;;;;;;8.40;2.83;;;;;;;24.15;61.41;99216.22;5047636;28;20537;-85
2022/06/23 04:35:06;;;;;;;3.83;2.40;;;;;;;24.25;61.64;99217.19;5046488;28;20025;-84
2022/06/23 04:37:47;;;;;;;5.38;2.42;;;;;;;24.36;62.16;99221.72;5046607;28;20041;-83
2022/06/23 04:40:28;;;;;;;3.85;2.08;;;;;;;24.36;61.07;99217.19;5047034;28;20106;-86
2022/06/23 04:43:03;;;;;;;4.50;2.42;;;;;;;24.50;60.15;99186.44;5035875;28;20033;-84
2022/06/23 04:45:39;;;;;;;4.97;3.35;;;;;;;24.54;60.64;99182.50;5044170;28;20068;-87
2022/06/23 04:48:18;;;;;;;5.18;3.20;;;;;;;24.86;60.16;99208.72;5045696;28;20437;-87
2022/06/23 04:50:50;;;;;;;5.40;2.10;;;;;;;25.12;59.64;99193.06;5046387;28;20056;-86
2022/06/23 04:53:39;;;;;;;4.13;2.83;;;;;;;24.95;59.29;99128.88;5036260;28;20041;-87
2022/06/23 04:56:27;;;;;;;4.45;2.45;;;;;;;25.54;58.29;99193.13;5005513;28;20503;-86
2022/06/23 04:58:59;;;;;;;7.65;2.33;;;;;;;25.83;56.58;99189.78;4965035;28;20057;-86
2022/06/23 05:01:35;;;;;;;3.25;2.03;;;;;;;26.08;56.42;99184.97;5037829;28;20132;-86
2022/06/23 05:04:03;;;;;;;4.13;2.47;;;;;;;26.39;54.62;99198.50;5026736;28;20037;-87
2022/06/23 05:06:40;;;;;;;5.88;3.03;;;;;;;26.68;52.78;99206.72;5026422;28;20034;-87
2022/06/23 05:09:11;;;;;;;4.43;2.15;;;;;;;26.72;51.24;99197.31;5026916;28;20044;-87
2022/06/23 05:11:47;;;;;;;3.47;2.25;;;;;;;26.94;50.34;99217.03;5033973;28;20138;-84
2022/06/23 05:14:21;;;;;;;3.70;2.70;;;;;;;27.11;49.25;99221.78;5027403;28;20400;-83
2022/06/23 05:16:52;;;;;;;4.35;2.05;;;;;;;27.01;50.20;99198.41;5026515;28;20140;-84
2022/06/23 05:19:25;;;;;;;3.38;2.50;;;;;;;27.33;49.57;99223.38;5026662;28;20171;-84
2022/06/23 05:21:57;;;;;;;3.88;2.20;;;;;;;27.29;47.49;99200.25;5026779;28;20037;-84
2022/06/23 05:24:34;;;;;;;5.47;2.80;;;;;;;27.30;46.77;99215.50;5029127;28;20195;-84
2022/06/23 05:27:02;;;;;;;6.03;2.97;;;;;;;27.41;48.34;99208.28;5046900;28;20033;-83
2022/06/23 05:29:50;;;;;;;6.07;2.50;;;;;;;27.54;48.64;99219.66;5045260;28;20433;-84
2022/06/23 05:32:21;;;;;;;4.35;2.25;;;;;;;27.87;47.41;99236.47;5046292;28;20033;-85
2022/06/23 05:35:10;;;;;;;5.25;2.88;;;;;;;27.90;47.35;99238.00;5045298;28;20041;-84
2022/06/23 05:37:44;;;;;;;5.03;3.15;;;;;;;28.31;47.40;99238.66;5045101;28;20044;-84
2022/06/23 05:40:28;;;;;;;11.13;3.17;;;;;;;28.58;45.97;99237.84;5041338;28;20119;-85
2022/06/23 05:43:00;;;;;;;5.25;2.47;;;;;;;28.38;47.05;99229.78;5048362;28;20815;-84
2022/06/23 05:45:31;;;;;;;5.28;2.88;;;;;;;28.83;45.43;99211.91;5050447;28;20082;-85
2022/06/23 05:47:58;;;;;;;5.47;2.30;;;;;;;29.02;45.10;99220.91;5048913;28;20102;-87
2022/06/23 05:50:29;;;;;;;6.30;3.75;;;;;;;29.29;44.06;99228.19;5037811;28;20530;-85
2022/06/23 05:53:20;;;;;;;4.80;2.88;;;;;;;28.72;45.49;99223.81;5030296;28;20053;-84
2022/06/23 05:56:00;;;;;;;5.78;2.63;;;;;;;28.56;44.86;99216.31;5041671;28;20041;-85
2022/06/23 05:58:35;;;;;;;4.28;2.33;;;;;;;29.03;44.41;99223.47;5036623;28;20071;-85
2022/06/23 06:01:26;;;;;;;4.35;2.90;;;;;;;29.24;43.04;99212.38;5035953;28;20033;-85
2022/06/23 06:04:29;;;;;;;4.93;2.42;;;;;;;29.50;42.40;99194.44;5049943;28;20478;-84
2022/06/23 06:06:55;;;;;;;4.75;3.42;;;;;;;29.50;43.30;99200.69;5029209;28;20091;-85
2022/06/23 06:09:36;;;;;;;4.60;2.50;;;;;;;29.76;43.32;99192.59;5029963;28;20036;-84
2022/06/23 06:12:12;;;;;;;3.80;2.40;;;;;;;30.12;42.08;99214.28;5028141;28;20033;-85
2022/06/23 06:14:57;;;;;;;5.75;3.33;;;;;;;30.34;41.48;99193.00;5029842;28;20037;-85
2022/06/23 06:17:25;;;;;;;3.70;2.13;;;;;;;30.52;41.33;99214.69;5029727;28;20066;-86
2022/06/23 06:19:53;;;;;;;7.18;3.08;;;;;;;30.88;40.59;99199.00;5029173;28;20038;-85
2022/06/23 06:22:34;;;;;;;4.65;3.20;;;;;;;30.86;39.79;99203.78;5029365;28;20064;-84
2022/06/23 06:25:02;;;;;;;4.63;2.60;;;;;;;30.77;39.49;99212.06;5030282;28;20040;-85
2022/06/23 06:27:28;;;;;;;4.47;2.65;;;;;;;31.26;38.32;99205.91;5029579;28;20045;-85
2022/06/23 06:29:55;;;;;;;7.07;3.58;;;;;;;31.02;38.05;99211.16;5029666;28;20037;-85
2022/06/23 06:32:34;;;;;;;5.18;2.95;;;;;;;30.94;38.28;99216.56;5029810;28;20033;-86
2022/06/23 06:35:21;;;;;;;4.03;2.80;;;;;;;31.23;38.08;99215.25;5029367;28;20040;-86
2022/06/23 06:37:55;;;;;;;4.78;2.70;;;;;;;30.83;39.49;99203.22;5029483;28;20026;-86
2022/06/23 06:40:21;;;;;;;4.70;2.55;;;;;;;30.91;39.07;99216.88;5029068;28;20056;-86
2022/06/23 06:42:56;;;;;;;7.15;3.03;;;;;;;30.85;39.36;99183.00;5029152;28;20041;-84
2022/06/23 06:45:26;;;;;;;5.00;2.10;;;;;;;30.87;39.57;99207.34;5028955;28;20092;-84
2022/06/23 06:47:51;;;;;;;4.30;2.45;;;;;;;30.58;42.07;99222.19;5029149;28;20033;-85
2022/06/23 06:50:43;;;;;;;4.72;3.55;;;;;;;30.63;40.22;99189.91;5029598;28;20859;-84
2022/06/23 06:53:20;;;;;;;7.45;3.63;;;;;;;31.04;39.96;99217.28;5028474;28;20089;-85
2022/06/23 06:55:53;;;;;;;5.32;3.03;;;;;;;30.94;39.65;99243.78;5029072;28;20319;-85
2022/06/23 06:58:27;;;;;;;3.35;1.75;;;;;;;30.39;39.41;99245.06;5028995;28;20041;-85
2022/06/23 07:00:59;;;;;;;3.85;2.38;;;;;;;30.28;39.86;99258.91;5028878;28;20073;-83
2022/06/23 07:03:26;;;;;;;5.45;2.65;;;;;;;29.80;40.36;99293.75;5029160;28;20033;-84
2022/06/23 07:06:13;;;;;;;7.13;3.88;;;;;;;28.97;42.50;99300.09;5028965;28;20030;-85
2022/06/23 07:08:46;;;;;;;4.63;2.38;;;;;;;28.92;43.78;99321.44;5028819;28;20037;-85
2022/06/23 07:11:30;;;;;;;6.43;3.85;;;;;;;28.72;45.88;99339.66;5028894;28;20030;-83
2022/06/23 07:14:04;;;;;;;4.90;2.40;;;;;;;28.65;47.15;99343.94;5028706;28;20029;-84
2022/06/23 07:16:48;;;;;;;7.57;4.10;;;;;;;28.07;50.47;99396.38;5028819;28;20037;-84
2022/06/23 07:19:27;;;;;;;6.68;3.63;;;;;;;27.30;53.77;99405.03;5042204;28;20032;-83
2022/06/23 07:22:00;;;;;;;5.13;3.03;;;;;;;26.89;54.43;99433.06;5047980;28;20076;-84
2022/06/23 07:24:48;;;;;;;9.00;3.00;;;;;;;26.13;55.24;99455.69;5047543;28;20044;-83
2022/06/23 07:27:27;;;;;;;3.88;2.17;;;;;;;25.27;56.87;99444.63;5047990;28;20044;-85
2022/06/23 07:30:17;;;;;;;2.92;1.60;;;;;;;25.00;56.91;99482.75;5047073;28;20430;-84
2022/06/23 07:32:49;;;;;;;3.92;2.40;;;;;;;24.34;59.27;99528.22;5047524;28;20068;-83
2022/06/23 07:35:17;;;;;;;3.45;1.83;;;;;;;23.70;62.76;99557.06;5047094;28;20029;-84
2022/06/23 07:37:57;;;;;;;4.82;2.63;;;;;;;23.27;64.53;99549.34;5047848;28;20029;-82
2022/06/23 07:40:27;;;;;;;3.88;2.30;;;;;;;23.53;65.89;99530.50;5046974;28;20124;-88
2022/06/23 07:43:04;;;;;;;2.65;1.90;;;;;;;23.65;67.15;99520.66;5047946;28;20032;-83
2022/06/23 07:45:46;;;;;;;7.07;3.40;;;;;;;23.48;69.00;99494.94;5046922;28;20033;-85
2022/06/23 07:48:11;;;;;;;3.55;1.88;;;;;;;23.48;68.08;99468.91;5047883;28;20060;-85
2022/06/23 07:50:37;;;;;;;4.22;2.40;;;;;;;23.21;69.86;99458.28;5048046;28;20052;-85
2022/06/23 07:53:05;;;;;;;3.63;2.17;;;;;;;22.70;71.65;99440.31;5047089;28;20068;-85
2022/06/23 07:55:40;;;;;;;4.00;2.13;;;;;;;22.08;72.22;99404.16;5046464;28;20739;-85
2022/06/23 07:58:07;;;;;;;4.05;2.65;;;;;;;21.88;73.96;99375.97;5047111;28;20119;-85
2022/06/23 08:00:38;;;;;;;4.90;3.40;;;;;;;21.92;74.67;99353.31;5047514;28;20033;-84
2022/06/23 08:03:11;;;;;;;4.60;2.28;;;;;;;21.90;75.63;99363.28;5047022;28;20033;-84
2022/06/23 08:05:45;;;;;;;2.95;1.80;;;;;;;22.03;74.80;99375.88;5046709;28;20133;-83
2022/06/23 08:08:18;;;;;;;2.65;1.45;;;;;;;21.77;74.91;99320.31;5046965;28;20143;-85
2022/06/23 08:10:44;;;;;;;4.43;2.65;;;;;;;21.66;76.66;99360.44;5047622;28;20503;-85
2022/06/23 08:13:16;;;;;;;5.25;3.20;;;;;;;22.08;75.48;99384.50;5047720;28;20039;-84
2022/06/23 08:19:05;;;;;;;6.07;2.33;;;;;;;22.02;75.75;99347.31;5046970;28;20434;-84
2022/06/23 08:21:35;;;;;;;4.40;2.28;;;;;;;22.39;75.49;99360.94;5046849;28;20028;-84
2022/06/23 08:24:06;;;;;;;2.97;1.75;;;;;;;22.65;74.42;99381.47;5046562;28;20112;-84
2022/06/23 08:26:32;;;;;;;5.57;2.83;;;;;;;22.74;73.70;99397.91;5045057;28;20040;-85
2022/06/23 08:29:01;;;;;;;5.57;2.80;;;;;;;22.88;72.89;99382.53;5046119;28;20039;-83
2022/06/23 08:31:29;;;;;;;3.78;2.20;;;;;;;22.96;71.74;99381.16;5046540;28;20039;-83
2022/06/23 08:33:57;;;;;;;5.40;2.72;;;;;;;23.03;71.92;99377.91;5046330;28;20474;-83
2022/06/23 08:36:31;;;;;;;4.90;3.10;;;;;;;23.26;70.96;99380.78;5046893;28;20041;-83
2022/06/23 08:39:05;;;;;;;3.25;1.85;;;;;;;23.51;70.51;99385.25;5046655;28;20028;-83
2022/06/23 08:41:39;;;;;;;4.45;2.75;;;;;;;23.82;68.04;99422.47;5046427;28;20083;-83
2022/06/23 08:44:23;;;;;;;3.35;2.42;;;;;;;23.57;69.01;99444.03;5046910;28;20041;-84
2022/06/23 08:46:59;;;;;;;5.22;2.58;;;;;;;22.28;75.18;99466.44;5046942;28;20037;-84
2022/06/23 08:49:35;;;;;;;5.95;3.35;;;;;;;21.97;78.15;99501.56;5047328;28;20025;-83
2022/06/23 08:52:17;;;;;;;7.43;2.88;;;;;;;21.95;79.19;99478.44;5047305;28;20033;-83
2022/06/23 08:54:49;;;;;;;2.42;1.50;;;;;;;22.23;77.36;99452.44;5045934;28;20060;-84
2022/06/23 08:57:27;;;;;;;4.28;2.55;;;;;;;21.82;76.71;99487.28;5046546;28;20088;-84
2022/06/23 09:00:11;;;;;;;3.92;2.33;;;;;;;21.67;79.58;99482.06;5046834;28;20037;-83
2022/06/23 09:03:17;;;;;;;12.17;5.67;;;;;;;21.76;79.04;99463.53;5045923;28;20119;-84
2022/06/23 09:05:51;;;;;;;11.90;4.97;;;;;;;21.33;79.32;99454.66;5016360;28;20569;-84
2022/06/23 09:08:16;;;;;;;9.27;5.60;;;;;;;21.47;79.61;99494.88;5046459;28;20033;-85
2022/06/23 09:11:16;;;;;;;12.07;7.68;;;;;;;21.83;77.94;99466.69;5046303;28;20060;-84
2022/06/23 09:14:08;;;;;;;7.63;4.10;;;;;;;22.24;77.32;99483.72;5046493;28;20037;-86
2022/06/23 09:17:11;;;;;;;6.18;4.35;;;;;;;22.31;76.79;99482.38;5048382;28;20021;-84
2022/06/23 09:20:21;;;;;;;5.13;3.03;;;;;;;22.49;76.70;99442.63;5050302;28;20517;-84
2022/06/23 09:23:11;;;;;;;6.25;2.60;;;;;;;22.34;77.53;99380.06;5050642;28;20083;-84
2022/06/23 09:26:04;;;;;;;2.58;1.92;;;;;;;22.41;77.51;99397.47;5049945;28;20552;-86
2022/06/23 09:28:50;;;;;;;4.73;2.83;;;;;;;22.45;77.82;99395.47;5050138;28;20518;-84
2022/06/23 09:31:39;;;;;;;9.35;2.88;;;;;;;22.71;77.08;99416.00;5050801;28;20275;-84
2022/06/23 09:34:20;;;;;;;5.50;2.60;;;;;;;22.73;76.84;99413.22;5049494;28;20045;-84
2022/06/23 09:37:12;;;;;;;4.20;2.60;;;;;;;22.94;76.98;99426.97;5050564;28;20029;-84
2022/06/23 09:39:49;;;;;;;5.45;2.25;;;;;;;22.86;78.22;99424.81;5050374;28;20040;-85
2022/06/23 09:42:33;;;;;;;4.95;3.30;;;;;;;22.95;77.63;99438.59;5049950;28;20032;-86
2022/06/23 09:45:39;;;;;;;4.50;3.03;;;;;;;22.96;77.35;99449.22;5049864;28;20044;-84
2022/06/23 09:48:19;;;;;;;8.45;2.65;;;;;;;23.18;77.36;99469.28;5050049;28;20495;-83
2022/06/23 09:51:18;;;;;;;3.97;2.42;;;;;;;23.27;75.89;99455.16;5050160;28;20036;-84
2022/06/23 09:54:13;;;;;;;4.70;2.47;;;;;;;23.42;76.04;99440.59;5046061;28;20071;-84
2022/06/23 09:56:50;;;;;;;;;;;;;;;23.54;75.79;99449.63;5050371;28;20044;-84
2022/06/23 09:59:40;;;;;;;3.45;1.98;;;;;;;24.06;75.39;99417.97;5049524;28;20378;-84
2022/06/23 10:02:32;;;;;;;4.50;1.95;;;;;;;24.57;72.79;99381.78;5049877;28;20069;-84
2022/06/23 10:05:30;;;;;;;5.68;2.60;;;;;;;24.96;69.10;99392.25;5049577;28;20491;-84
2022/06/23 10:08:29;;;;;;;3.70;2.33;;;;;;;24.96;66.72;99354.47;5050043;28;20111;-84
2022/06/23 10:11:10;;;;;;;5.35;2.70;;;;;;;24.80;66.82;99369.19;5025281;28;20525;-84
2022/06/23 10:13:55;;;;;;;3.13;2.17;;;;;;;24.91;67.05;99348.59;5049683;28;20072;-85
2022/06/23 10:16:46;;;;;;;5.63;2.55;;;;;;;25.40;60.79;99328.44;5029838;28;20071;-85
2022/06/23 10:19:45;;;;;;;4.57;2.22;;;;;;;26.03;58.86;99334.00;5029562;28;20120;-86
2022/06/23 10:22:29;;;;;;;2.85;2.17;;;;;;;26.44;59.67;99358.44;5029871;28;20025;-86
2022/06/23 10:25:16;;;;;;;3.05;1.67;;;;;;;26.72;54.59;99337.13;5029420;28;20029;-86
2022/06/23 10:27:42;;;;;;;3.83;2.83;;;;;;;26.96;56.29;99350.34;5028837;28;20025;-86
2022/06/23 10:30:16;;;;;;;1.90;1.58;;;;;;;27.30;57.57;99322.97;5029635;28;20147;-86
2022/06/23 10:33:18;;;;;;;5.22;1.90;;;;;;;26.93;53.28;99337.94;5030219;28;20047;-86
2022/06/23 10:36:04;;;;;;;3.10;1.70;;;;;;;26.73;53.97;99333.47;5049340;28;20391;-86
2022/06/23 10:38:55;;;;;;;7.72;3.88;;;;;;;26.87;58.19;99329.53;5048938;28;20047;-84
2022/06/23 10:41:43;;;;;;;3.65;2.30;;;;;;;26.68;58.42;99328.44;5048305;28;20115;-84
2022/06/23 10:44:20;;;;;;;5.00;3.25;;;;;;;26.92;57.75;99325.41;5049239;28;20029;-87
2022/06/23 10:47:08;;;;;;;6.25;3.70;;;;;;;26.90;58.21;99307.59;5048496;28;20037;-85
2022/06/23 10:49:54;;;;;;;5.65;3.92;;;;;;;27.15;55.74;99298.13;5049069;28;20037;-87
2022/06/23 10:52:44;;;;;;;5.38;3.00;;;;;;;27.55;54.92;99321.59;5049085;28;20035;-86
2022/06/23 10:55:40;;;;;;;5.43;3.72;;;;;;;27.63;53.03;99329.03;5028768;28;20037;-86
2022/06/23 10:58:11;;;;;;;2.75;1.88;;;;;;;27.32;54.86;99311.00;5028590;28;20111;-85
2022/06/23 11:01:14;;;;;;;2.30;1.63;;;;;;;27.74;54.51;99325.31;5028946;28;20519;-85
2022/06/23 11:03:58;;;;;;;4.53;2.85;;;;;;;27.74;52.45;99331.59;5017257;28;20049;-86
2022/06/23 11:06:45;;;;;;;3.20;2.30;;;;;;;28.01;51.21;99320.06;5026909;28;20738;-85
2022/06/23 11:09:28;;;;;;;5.43;1.80;;;;;;;27.77;52.19;99327.75;5028997;28;20036;-84
2022/06/23 11:12:09;;;;;;;3.38;1.98;;;;;;;27.67;51.42;99306.06;5044328;28;20037;-86
2022/06/23 11:14:50;;;;;;;3.22;2.10;;;;;;;27.81;49.30;99277.69;5048390;28;20033;-86
2022/06/23 11:18:03;;;;;;;6.70;5.43;;;;;;;27.81;49.33;99311.06;5048475;28;20033;-86
2022/06/23 11:20:56;;;;;;;10.73;8.07;;;;;;;28.14;50.86;99313.47;5038724;28;20510;-84
2022/06/23 11:23:30;;;;;;;4.43;2.92;;;;;;;27.84;49.92;99305.34;5048382;28;20861;-86
2022/06/23 11:26:14;;;;;;;4.60;2.50;;;;;;;28.18;52.44;99301.38;5047776;28;20094;-86
2022/06/23 11:28:59;;;;;;;2.90;2.03;;;;;;;27.80;51.22;99308.50;5048174;28;20041;-86
2022/06/23 11:31:49;;;;;;;4.55;1.92;;;;;;;28.33;54.04;99307.16;5047968;28;20115;-85
2022/06/23 11:34:55;;;;;;;3.35;2.13;;;;;;;28.57;49.95;99293.09;5047693;28;20040;-85
2022/06/23 11:37:38;;;;;;;2.53;2.15;;;;;;;28.65;50.83;99276.97;5026313;28;20040;-85
2022/06/23 11:40:28;;;;;;;3.15;2.22;;;;;;;29.01;50.94;99287.94;5046534;28;20056;-85
2022/06/23 11:43:15;;;;;;;2.47;1.48;;;;;;;28.94;49.81;99262.41;5047140;28;20033;-85
2022/06/23 11:45:43;;;;;;;2.83;2.10;;;;;;;29.14;46.80;99275.88;5047866;28;20033;-85
2022/06/23 11:48:28;;;;;;;5.43;3.75;;;;;;;29.40;47.88;99252.41;5047995;28;20095;-87
2022/06/23 11:50:56;;;;;;;7.90;5.05;;;;;;;28.44;53.56;99260.03;5047910;28;20124;-85
2022/06/23 11:53:52;;;;;;;3.35;2.60;;;;;;;28.43;53.52;99267.31;5045683;28;20045;-85
2022/06/23 11:56:27;;;;;;;3.92;2.92;;;;;;;28.90;50.13;99255.56;5047775;28;20021;-85
2022/06/23 11:59:00;;;;;;;;;;;;;;;29.46;49.66;99256.38;5048125;28;20094;-85
2022/06/23 12:01:28;;;;;;;6.20;4.07;;;;;;;29.44;49.23;99236.66;5047127;28;19920;-86
2022/06/23 12:04:03;;;;;;;4.68;3.72;;;;;;;29.12;50.10;99254.31;5030592;28;20041;-83
2022/06/23 12:06:50;;;;;;;4.18;2.88;;;;;;;29.36;50.42;99259.16;5027702;28;20026;-87
2022/06/23 12:09:54;;;;;;;8.27;3.95;;;;;;;29.64;47.62;99256.34;5027638;28;20026;-87
2022/06/23 12:12:20;;;;;;;5.85;4.45;;;;;;;29.63;48.41;99222.06;5046098;28;20056;-89
2022/06/23 12:14:46;;;;;;;6.20;2.90;;;;;;;29.28;48.36;99223.78;5047016;28;20106;-86
2022/06/23 12:17:23;;;;;;;4.90;2.13;;;;;;;29.75;49.25;99252.53;5047497;28;20483;-86
2022/06/23 12:19:59;;;;;;;7.20;2.72;;;;;;;30.03;47.11;99260.59;5027539;28;20038;-86
2022/06/23 12:22:39;;;;;;;6.18;3.05;;;;;;;29.57;48.55;99258.84;5027646;28;20033;-86
2022/06/23 12:25:17;;;;;;;5.75;3.15;;;;;;;29.63;48.93;99260.09;5036944;28;20132;-86
2022/06/23 12:27:52;;;;;;;3.90;2.20;;;;;;;29.89;47.46;99254.75;5045967;28;20465;-87
2022/06/23 12:30:19;;;;;;;5.30;3.35;;;;;;;29.36;48.86;99239.28;5046717;28;20091;-86
2022/06/23 12:33:07;;;;;;;3.45;2.10;;;;;;;29.09;50.10;99219.31;5047395;28;20040;-88
2022/06/23 12:35:45;;;;;;;2.33;1.67;;;;;;;29.33;50.11;99236.88;5045169;28;20426;-86
2022/06/23 12:38:29;;;;;;;3.97;2.05;;;;;;;29.60;48.50;99244.94;5047210;28;20116;-87
2022/06/23 12:41:02;;;;;;;5.03;1.77;;;;;;;28.83;49.08;99249.03;5046934;28;20037;-87
2022/06/23 12:43:37;;;;;;;4.38;3.03;;;;;;;28.79;49.31;99266.63;5046601;28;20033;-88